MUC | München Airways

 METAR UND TAF INFORMATION

METAR FOR WSSS
ADDS - METARS form results

(0119 UTC 24 January 2019)
Data provider http://aviationweather.gov/metar/data/
 
METAR text: WSSS 240100Z 04007KT 9999 FEW018 BKN300 28/23 Q1014 NOSIG
Conditions at: WSSS (SINGAPORE/CHANGI, SG) observed 0100 UTC 24 January 2019
Temperature: 28.0°C (82°F)
Dewpoint: 23.0°C (73°F) [RH = 74%]
Pressure (altimeter): 29.94 inches Hg (1014.0 mb)
Winds: from the NE (40 degrees) at 8 MPH (7 knots; 3.6 m/s)
Visibility: 6 or more miles (10+ km)
Ceiling: 30000 feet AGL
Clouds: few clouds at 1800 feet AGL
broken clouds at 30000 feet AGL
Weather: no significant weather observed at this time

METAR text: WSSS 240030Z 04006KT 020V080 9999 FEW018TCU BKN300 27/23 Q1013 NOSIG
Conditions at: WSSS (SINGAPORE/CHANGI, SG) observed 0030 UTC 24 January 2019
Temperature: 27.0°C (81°F)
Dewpoint: 23.0°C (73°F) [RH = 79%]
Pressure (altimeter): 29.91 inches Hg (1013.0 mb)
Winds: from the NE (40 degrees) at 7 MPH (6 knots; 3.1 m/s)
Visibility: 6 or more miles (10+ km)
Ceiling: 30000 feet AGL
Clouds: few clouds at 1800 feet AGL
broken clouds at 30000 feet AGL
Weather: no significant weather observed at this time

Forecast for: WSSS (SINGAPORE/CHANGI, SG)
Text: TAF WSSS 232300Z 2400/2506 03010KT 9999 SCT020
Forecast period: 0000 UTC 24 January 2019 to 0600 UTC 25 January 2019
Forecast type: FROM: standard forecast or significant change
Winds: from the NNE (30 degrees) at 12 MPH (10 knots; 5.1 m/s)
Visibility: 6 or more miles 10+ km)
Ceiling: at least 12,000 feet AGL
Clouds: scattered clouds at 2000 feet AGL
Weather: no significant weather forecast for this period

 FLUGHAFENKARTE

 RUNWAY INFORMATION
Runway 02C Runway length 13123 ft Runway width 197 ft
Runway elevation 15 ft Runway displaced threshold 0 ft Runway heading 23
Runway 20C Runway length 13123 ft Runway width 197 ft
Runway elevation 15 ft Runway displaced threshold 0 ft Runway heading 203
Runway 02R Runway length 9015 ft Runway width 195 ft
Runway elevation 0 ft Runway displaced threshold 0 ft Runway heading 23
Runway 20L Runway length 9015 ft Runway width 195 ft
Runway elevation 0 ft Runway displaced threshold 0 ft Runway heading 203
Runway 02L Runway length 13123 ft Runway width 197 ft
Runway elevation 22 ft Runway displaced threshold 0 ft Runway heading 23
Runway 20R Runway length 13123 ft Runway width 197 ft
Runway elevation 14 ft Runway displaced threshold 2429 ft Runway heading 203

 AIRPORT FREQUENCIES
Type A/D Name APP/DEP Frequency 120.3 MHZ
Type ARR Name ARR Frequency 119.3 MHZ
Type ATIS Name ATIS Frequency 128.6 MHZ
Type CLD Name CLNC DEL Frequency 121.65 MHZ
Type GND Name GND Frequency 124.3 MHZ
Type TWR Name TWR Frequency 118.6 MHZ

 AIRPORT NEAR NAVIGATION AIDS
Type NDB Name Bedok Frequency 232 KHZ
Type VOR-DME Name Tekong Frequency 116500 KHZ